sensor_id;sensor_type;location;lat;lon;timestamp;pressure;altitude;pressure_sealevel;temperature;humidity
80128;BME280;69440;52.118;5.408;2024-03-17T00:00:16;102447.22;;;5.11;100.00
80128;BME280;69440;52.118;5.408;2024-03-17T00:02:46;102442.81;;;5.09;100.00
80128;BME280;69440;52.118;5.408;2024-03-17T00:05:12;102449.88;;;5.13;100.00
80128;BME280;69440;52.118;5.408;2024-03-17T00:07:39;102444.47;;;5.19;100.00
80128;BME280;69440;52.118;5.408;2024-03-17T00:10:04;102439.09;;;5.25;100.00
80128;BME280;69440;52.118;5.408;2024-03-17T00:12:30;102438.19;;;5.26;100.00
80128;BME280;69440;52.118;5.408;2024-03-17T00:14:55;102434.63;;;5.27;100.00
80128;BME280;69440;52.118;5.408;2024-03-17T00:17:21;102437.25;;;5.30;100.00
80128;BME280;69440;52.118;5.408;2024-03-17T00:19:48;102435.44;;;5.34;100.00
80128;BME280;69440;52.118;5.408;2024-03-17T00:22:13;102429.28;;;5.27;100.00
80128;BME280;69440;52.118;5.408;2024-03-17T00:24:40;102425.75;;;5.25;100.00
80128;BME280;69440;52.118;5.408;2024-03-17T00:27:06;102428.44;;;5.25;100.00
80128;BME280;69440;52.118;5.408;2024-03-17T00:29:31;102421.34;;;5.22;100.00
80128;BME280;69440;52.118;5.408;2024-03-17T00:31:58;102422.25;;;5.20;100.00
80128;BME280;69440;52.118;5.408;2024-03-17T00:34:23;102430.28;;;5.15;100.00
80128;BME280;69440;52.118;5.408;2024-03-17T00:36:49;102424.13;;;5.12;100.00
80128;BME280;69440;52.118;5.408;2024-03-17T00:39:14;102424.09;;;5.15;100.00
80128;BME280;69440;52.118;5.408;2024-03-17T00:41:40;102420.53;;;5.14;100.00
80128;BME280;69440;52.118;5.408;2024-03-17T00:44:06;102421.44;;;5.13;100.00
80128;BME280;69440;52.118;5.408;2024-03-17T00:46:32;102413.41;;;5.16;100.00
80128;BME280;69440;52.118;5.408;2024-03-17T00:48:59;102412.50;;;5.17;100.00
80128;BME280;69440;52.118;5.408;2024-03-17T00:51:27;102401.81;;;5.22;100.00
80128;BME280;69440;52.118;5.408;2024-03-17T00:53:53;102408.00;;;5.25;100.00
80128;BME280;69440;52.118;5.408;2024-03-17T00:56:18;102409.78;;;5.25;100.00
80128;BME280;69440;52.118;5.408;2024-03-17T00:58:44;102410.69;;;5.22;100.00
80128;BME280;69440;52.118;5.408;2024-03-17T01:01:11;102414.25;;;5.23;100.00
80128;BME280;69440;52.118;5.408;2024-03-17T01:03:36;102410.69;;;5.22;100.00
80128;BME280;69440;52.118;5.408;2024-03-17T01:06:05;102408.06;;;5.16;100.00
80128;BME280;69440;52.118;5.408;2024-03-17T01:08:31;102407.25;;;5.11;100.00
80128;BME280;69440;52.118;5.408;2024-03-17T01:10:57;102406.31;;;5.14;100.00
80128;BME280;69440;52.118;5.408;2024-03-17T01:13:24;102402.72;;;5.19;100.00
80128;BME280;69440;52.118;5.408;2024-03-17T01:15:53;102396.50;;;5.19;100.00
80128;BME280;69440;52.118;5.408;2024-03-17T01:18:18;102394.78;;;5.15;100.00
80128;BME280;69440;52.118;5.408;2024-03-17T01:20:44;102396.50;;;5.20;100.00
80128;BME280;69440;52.118;5.408;2024-03-17T01:23:11;102397.31;;;5.27;100.00
80128;BME280;69440;52.118;5.408;2024-03-17T01:25:36;102388.44;;;5.26;100.00
80128;BME280;69440;52.118;5.408;2024-03-17T01:28:05;102388.53;;;5.16;100.00
80128;BME280;69440;52.118;5.408;2024-03-17T01:30:32;102388.56;;;5.14;100.00
80128;BME280;69440;52.118;5.408;2024-03-17T01:32:58;102387.69;;;5.14;100.00
80128;BME280;69440;52.118;5.408;2024-03-17T01:35:25;102376.09;;;5.16;100.00
80128;BME280;69440;52.118;5.408;2024-03-17T01:37:51;102377.84;;;5.22;100.00
80128;BME280;69440;52.118;5.408;2024-03-17T01:40:16;102376.00;;;5.25;100.00
80128;BME280;69440;52.118;5.408;2024-03-17T01:42:42;102369.78;;;5.26;100.00
80128;BME280;69440;52.118;5.408;2024-03-17T01:45:25;102366.28;;;5.21;100.00
80128;BME280;69440;52.118;5.408;2024-03-17T01:47:52;102361.94;;;5.11;100.00
80128;BME280;69440;52.118;5.408;2024-03-17T01:50:17;102351.38;;;5.05;100.00
80128;BME280;69440;52.118;5.408;2024-03-17T01:52:51;102356.69;;;5.07;100.00
80128;BME280;69440;52.118;5.408;2024-03-17T01:55:19;102355.75;;;5.09;100.00
80128;BME280;69440;52.118;5.408;2024-03-17T01:57:45;102356.69;;;5.07;100.00
80128;BME280;69440;52.118;5.408;2024-03-17T02:00:11;102359.31;;;5.08;100.00
80128;BME280;69440;52.118;5.408;2024-03-17T02:02:38;102348.66;;;5.08;100.00
80128;BME280;69440;52.118;5.408;2024-03-17T02:05:03;102356.59;;;5.13;100.00
80128;BME280;69440;52.118;5.408;2024-03-17T02:07:29;102354.81;;;5.13;100.00
80128;BME280;69440;52.118;5.408;2024-03-17T02:09:58;102355.69;;;5.15;100.00
80128;BME280;69440;52.118;5.408;2024-03-17T02:12:25;102352.97;;;5.18;100.00
80128;BME280;69440;52.118;5.408;2024-03-17T02:14:50;102344.97;;;5.21;100.00
80128;BME280;69440;52.118;5.408;2024-03-17T02:17:16;102344.91;;;5.26;100.00
80128;BME280;69440;52.118;5.408;2024-03-17T02:19:42;102347.56;;;5.27;100.00
80128;BME280;69440;52.118;5.408;2024-03-17T02:22:14;102348.34;;;5.34;100.00
80128;BME280;69440;52.118;5.408;2024-03-17T02:24:43;102342.13;;;5.35;100.00
80128;BME280;69440;52.118;5.408;2024-03-17T02:27:09;102348.31;;;5.37;100.00
80128;BME280;69440;52.118;5.408;2024-03-17T02:29:35;102335.78;;;5.42;100.00
80128;BME280;69440;52.118;5.408;2024-03-17T02:32:07;102341.91;;;5.49;100.00
80128;BME280;69440;52.118;5.408;2024-03-17T02:34:37;102339.25;;;5.49;100.00
80128;BME280;69440;52.118;5.408;2024-03-17T02:37:03;102337.44;;;5.51;100.00
80128;BME280;69440;52.118;5.408;2024-03-17T02:39:30;102325.03;;;5.51;100.00
80128;BME280;69440;52.118;5.408;2024-03-17T02:42:07;102322.34;;;5.50;100.00
80128;BME280;69440;52.118;5.408;2024-03-17T02:44:34;102322.34;;;5.50;100.00
80128;BME280;69440;52.118;5.408;2024-03-17T02:47:01;102324.06;;;5.55;100.00
80128;BME280;69440;52.118;5.408;2024-03-17T02:49:28;102315.94;;;5.63;100.00
80128;BME280;69440;52.118;5.408;2024-03-17T02:52:01;102319.53;;;5.62;100.00
80128;BME280;69440;52.118;5.408;2024-03-17T02:54:26;102325.72;;;5.64;100.00
80128;BME280;69440;52.118;5.408;2024-03-17T02:56:52;102319.44;;;5.68;100.00
80128;BME280;69440;52.118;5.408;2024-03-17T02:59:17;102325.66;;;5.69;100.00
80128;BME280;69440;52.118;5.408;2024-03-17T03:01:43;102321.22;;;5.68;100.00
80128;BME280;69440;52.118;5.408;2024-03-17T03:04:10;102322.03;;;5.71;100.00
80128;BME280;69440;52.118;5.408;2024-03-17T03:06:37;102319.34;;;5.73;100.00
80128;BME280;69440;52.118;5.408;2024-03-17T03:09:03;102308.66;;;5.74;100.00
80128;BME280;69440;52.118;5.408;2024-03-17T03:11:35;102307.72;;;5.77;100.00
80128;BME280;69440;52.118;5.408;2024-03-17T03:14:00;102316.59;;;5.79;100.00
80128;BME280;69440;52.118;5.408;2024-03-17T03:16:27;102316.59;;;5.79;100.00
80128;BME280;69440;52.118;5.408;2024-03-17T03:18:53;102320.09;;;5.84;100.00
80128;BME280;69440;52.118;5.408;2024-03-17T03:21:19;102314.72;;;5.87;100.00
80128;BME280;69440;52.118;5.408;2024-03-17T03:23:47;102306.69;;;5.87;100.00
80128;BME280;69440;52.118;5.408;2024-03-17T03:26:12;102307.59;;;5.87;100.00
80128;BME280;69440;52.118;5.408;2024-03-17T03:28:38;102312.91;;;5.87;100.00
80128;BME280;69440;52.118;5.408;2024-03-17T03:31:04;102310.25;;;5.87;100.00
80128;BME280;69440;52.118;5.408;2024-03-17T03:33:30;102317.34;;;5.90;100.00
80128;BME280;69440;52.118;5.408;2024-03-17T03:35:55;102308.41;;;5.93;100.00
80128;BME280;69440;52.118;5.408;2024-03-17T03:38:21;102306.59;;;5.96;100.00
80128;BME280;69440;52.118;5.408;2024-03-17T03:40:47;102305.66;;;5.99;100.00
80128;BME280;69440;52.118;5.408;2024-03-17T03:43:13;102302.97;;;5.99;100.00
80128;BME280;69440;52.118;5.408;2024-03-17T03:45:39;102299.44;;;5.98;100.00
80128;BME280;69440;52.118;5.408;2024-03-17T03:48:05;102298.47;;;6.02;100.00
80128;BME280;69440;52.118;5.408;2024-03-17T03:50:31;102300.25;;;6.02;100.00
80128;BME280;69440;52.118;5.408;2024-03-17T03:52:57;102293.09;;;6.04;100.00
80128;BME280;69440;52.118;5.408;2024-03-17T03:55:23;102279.75;;;6.04;100.00
80128;BME280;69440;52.118;5.408;2024-03-17T03:57:49;102274.44;;;6.04;100.00
80128;BME280;69440;52.118;5.408;2024-03-17T04:00:21;102273.53;;;6.03;100.00
80128;BME280;69440;52.118;5.408;2024-03-17T04:02:52;102266.41;;;6.05;100.00
80128;BME280;69440;52.118;5.408;2024-03-17T04:05:18;102266.41;;;6.04;100.00
80128;BME280;69440;52.118;5.408;2024-03-17T04:07:45;102267.38;;;6.00;100.00
80128;BME280;69440;52.118;5.408;2024-03-17T04:10:12;102263.81;;;6.01;100.00
80128;BME280;69440;52.118;5.408;2024-03-17T04:12:38;102247.69;;;6.07;100.00
80128;BME280;69440;52.118;5.408;2024-03-17T04:15:04;102251.22;;;6.07;100.00
80128;BME280;69440;52.118;5.408;2024-03-17T04:17:32;102252.09;;;6.08;100.00
80128;BME280;69440;52.118;5.408;2024-03-17T04:19:58;102241.44;;;6.08;100.00
80128;BME280;69440;52.118;5.408;2024-03-17T04:22:24;102244.97;;;6.08;100.00
80128;BME280;69440;52.118;5.408;2024-03-17T04:24:50;102250.28;;;6.13;100.00
80128;BME280;69440;52.118;5.408;2024-03-17T04:27:25;102251.16;;;6.12;100.00
80128;BME280;69440;52.118;5.408;2024-03-17T04:29:51;102250.19;;;6.17;100.00
80128;BME280;69440;52.118;5.408;2024-03-17T04:32:17;102243.94;;;6.18;100.00
80128;BME280;69440;52.118;5.408;2024-03-17T04:34:43;102247.47;;;6.20;100.00
80128;BME280;69440;52.118;5.408;2024-03-17T04:37:09;102234.03;;;6.23;100.00
80128;BME280;69440;52.118;5.408;2024-03-17T04:39:42;102226.88;;;6.26;100.00
80128;BME280;69440;52.118;5.408;2024-03-17T04:42:15;102214.41;;;6.26;100.00
80128;BME280;69440;52.118;5.408;2024-03-17T04:44:42;102222.44;;;6.26;100.00
80128;BME280;69440;52.118;5.408;2024-03-17T04:47:08;102230.41;;;6.28;100.00
80128;BME280;69440;52.118;5.408;2024-03-17T04:49:42;102218.84;;;6.27;100.00
80128;BME280;69440;52.118;5.408;2024-03-17T04:52:09;102222.44;;;6.26;100.00
80128;BME280;69440;52.118;5.408;2024-03-17T04:54:35;102221.50;;;6.29;100.00
80128;BME280;69440;52.118;5.408;2024-03-17T04:57:01;102225.06;;;6.28;100.00
80128;BME280;69440;52.118;5.408;2024-03-17T04:59:27;102233.91;;;6.31;100.00
80128;BME280;69440;52.118;5.408;2024-03-17T05:01:53;102233.94;;;6.30;100.00
80128;BME280;69440;52.118;5.408;2024-03-17T05:04:19;102232.09;;;6.32;100.00
80128;BME280;69440;52.118;5.408;2024-03-17T05:06:44;102247.22;;;6.33;100.00
80128;BME280;69440;52.118;5.408;2024-03-17T05:09:18;102241.94;;;6.30;100.00
80128;BME280;69440;52.118;5.408;2024-03-17T05:11:44;102242.81;;;6.30;100.00
80128;BME280;69440;52.118;5.408;2024-03-17T05:14:10;102226.78;;;6.32;100.00
80128;BME280;69440;52.118;5.408;2024-03-17T05:16:36;102233.88;;;6.33;100.00
80128;BME280;69440;52.118;5.408;2024-03-17T05:19:01;102225.84;;;6.33;100.00
80128;BME280;69440;52.118;5.408;2024-03-17T05:21:27;102230.34;;;6.31;100.00
80128;BME280;69440;52.118;5.408;2024-03-17T05:23:56;102225.00;;;6.31;100.00
80128;BME280;69440;52.118;5.408;2024-03-17T05:26:23;102233.00;;;6.32;100.00
80128;BME280;69440;52.118;5.408;2024-03-17T05:28:50;102230.31;;;6.32;100.00
80128;BME280;69440;52.118;5.408;2024-03-17T05:31:16;102228.56;;;6.31;100.00
80128;BME280;69440;52.118;5.408;2024-03-17T05:33:46;102227.72;;;6.29;100.00
80128;BME280;69440;52.118;5.408;2024-03-17T05:36:11;102225.88;;;6.31;100.00
80128;BME280;69440;52.118;5.408;2024-03-17T05:38:37;102225.00;;;6.31;100.00
80128;BME280;69440;52.118;5.408;2024-03-17T05:41:04;102218.78;;;6.30;100.00
80128;BME280;69440;52.118;5.408;2024-03-17T05:43:37;102215.25;;;6.30;100.00
80128;BME280;69440;52.118;5.408;2024-03-17T05:46:07;102217.88;;;6.31;100.00
80128;BME280;69440;52.118;5.408;2024-03-17T05:48:39;102223.25;;;6.30;100.00
80128;BME280;69440;52.118;5.408;2024-03-17T05:51:06;102216.13;;;6.30;100.00
80128;BME280;69440;52.118;5.408;2024-03-17T05:53:32;102212.53;;;6.31;100.00
80128;BME280;69440;52.118;5.408;2024-03-17T05:56:02;102220.56;;;6.30;100.00
80128;BME280;69440;52.118;5.408;2024-03-17T05:58:28;102225.03;;;6.29;100.00
80128;BME280;69440;52.118;5.408;2024-03-17T06:00:53;102224.16;;;6.29;100.00
80128;BME280;69440;52.118;5.408;2024-03-17T06:03:19;102231.28;;;6.28;100.00
80128;BME280;69440;52.118;5.408;2024-03-17T06:05:45;102231.25;;;6.30;100.00
80128;BME280;69440;52.118;5.408;2024-03-17T06:08:11;102230.31;;;6.32;100.00
80128;BME280;69440;52.118;5.408;2024-03-17T06:10:38;102226.72;;;6.35;100.00
80128;BME280;69440;52.118;5.408;2024-03-17T06:13:07;102232.94;;;6.35;100.00
80128;BME280;69440;52.118;5.408;2024-03-17T06:15:37;102230.25;;;6.35;100.00
80128;BME280;69440;52.118;5.408;2024-03-17T06:18:03;102229.34;;;6.36;100.00
80128;BME280;69440;52.118;5.408;2024-03-17T06:20:28;102223.91;;;6.41;100.00
80128;BME280;69440;52.118;5.408;2024-03-17T06:22:55;102230.13;;;6.43;100.00
80128;BME280;69440;52.118;5.408;2024-03-17T06:25:20;102222.06;;;6.46;100.00
80128;BME280;69440;52.118;5.408;2024-03-17T06:27:53;102223.75;;;6.50;100.00
80128;BME280;69440;52.118;5.408;2024-03-17T06:30:19;102219.19;;;6.55;100.00
80128;BME280;69440;52.118;5.408;2024-03-17T06:32:45;102224.41;;;6.61;100.00
80128;BME280;69440;52.118;5.408;2024-03-17T06:35:12;102227.88;;;6.66;100.00
80128;BME280;69440;52.118;5.408;2024-03-17T06:37:37;102222.41;;;6.71;100.00
80128;BME280;69440;52.118;5.408;2024-03-17T06:40:04;102214.31;;;6.77;100.00
80128;BME280;69440;52.118;5.408;2024-03-17T06:42:30;102221.38;;;6.79;100.00
80128;BME280;69440;52.118;5.408;2024-03-17T06:44:55;102215.94;;;6.84;100.00
80128;BME280;69440;52.118;5.408;2024-03-17T06:47:21;102219.38;;;6.89;100.00
80128;BME280;69440;52.118;5.408;2024-03-17T06:49:46;102215.72;;;6.93;100.00
80128;BME280;69440;52.118;5.408;2024-03-17T06:52:12;102219.19;;;6.97;100.00
80128;BME280;69440;52.118;5.408;2024-03-17T06:54:38;102225.34;;;7.00;100.00
80128;BME280;69440;52.118;5.408;2024-03-17T06:57:03;102233.31;;;7.03;100.00
80128;BME280;69440;52.118;5.408;2024-03-17T06:59:32;102229.72;;;7.06;100.00
80128;BME280;69440;52.118;5.408;2024-03-17T07:01:58;102220.69;;;7.11;100.00
80128;BME280;69440;52.118;5.408;2024-03-17T07:04:24;102222.41;;;7.14;100.00
80128;BME280;69440;52.118;5.408;2024-03-17T07:06:49;102208.03;;;7.18;100.00
80128;BME280;69440;52.118;5.408;2024-03-17T07:09:16;102207.13;;;7.19;100.00
80128;BME280;69440;52.118;5.408;2024-03-17T07:11:43;102211.44;;;7.25;100.00
80128;BME280;69440;52.118;5.408;2024-03-17T07:14:09;102222.81;;;7.34;100.00
80128;BME280;69440;52.118;5.408;2024-03-17T07:16:35;102220.94;;;7.39;100.00
80128;BME280;69440;52.118;5.408;2024-03-17T07:19:03;102221.66;;;7.46;100.00
80128;BME280;69440;52.118;5.408;2024-03-17T07:21:30;102225.84;;;7.56;100.00
80128;BME280;69440;52.118;5.408;2024-03-17T07:23:57;102221.19;;;7.64;100.00
80128;BME280;69440;52.118;5.408;2024-03-17T07:26:25;102220.06;;;7.74;100.00
80128;BME280;69440;52.118;5.408;2024-03-17T07:28:50;102230.50;;;7.85;100.00
80128;BME280;69440;52.118;5.408;2024-03-17T07:31:16;102230.34;;;7.91;100.00
80128;BME280;69440;52.118;5.408;2024-03-17T07:33:41;102223.97;;;7.97;100.00
80128;BME280;69440;52.118;5.408;2024-03-17T07:36:07;102218.41;;;8.04;100.00
80128;BME280;69440;52.118;5.408;2024-03-17T07:38:34;102218.25;;;8.10;100.00
80128;BME280;69440;52.118;5.408;2024-03-17T07:41:03;102209.25;;;8.13;100.00
80128;BME280;69440;52.118;5.408;2024-03-17T07:43:31;102210.88;;;8.19;100.00
80128;BME280;69440;52.118;5.408;2024-03-17T07:46:10;102216.94;;;8.27;100.00
80128;BME280;69440;52.118;5.408;2024-03-17T07:48:39;102213.28;;;8.29;100.00
80128;BME280;69440;52.118;5.408;2024-03-17T07:51:06;102213.09;;;8.37;100.00
80128;BME280;69440;52.118;5.408;2024-03-17T07:53:33;102214.69;;;8.44;100.00
80128;BME280;69440;52.118;5.408;2024-03-17T07:56:09;102209.97;;;8.52;100.00
80128;BME280;69440;52.118;5.408;2024-03-17T07:58:36;102208.81;;;8.62;100.00
80128;BME280;69440;52.118;5.408;2024-03-17T08:01:07;102204.09;;;8.70;100.00
80128;BME280;69440;52.118;5.408;2024-03-17T08:03:36;102201.19;;;8.78;100.00
80128;BME280;69440;52.118;5.408;2024-03-17T08:06:03;102201.97;;;8.82;100.00
80128;BME280;69440;52.118;5.408;2024-03-17T08:08:29;102202.72;;;8.87;100.00
80128;BME280;69440;52.118;5.408;2024-03-17T08:10:55;102209.56;;;8.97;100.00
80128;BME280;69440;52.118;5.408;2024-03-17T08:13:21;102216.56;;;9.02;100.00
80128;BME280;69440;52.118;5.408;2024-03-17T08:15:55;102213.78;;;9.06;100.00
80128;BME280;69440;52.118;5.408;2024-03-17T08:18:21;102210.16;;;9.07;100.00
80128;BME280;69440;52.118;5.408;2024-03-17T08:20:47;102207.38;;;9.10;100.00
80128;BME280;69440;52.118;5.408;2024-03-17T08:23:12;102202.03;;;9.10;100.00
80128;BME280;69440;52.118;5.408;2024-03-17T08:25:38;102203.88;;;9.08;100.00
80128;BME280;69440;52.118;5.408;2024-03-17T08:28:04;102200.16;;;9.12;100.00
80128;BME280;69440;52.118;5.408;2024-03-17T08:30:30;102199.44;;;9.07;100.00
80128;BME280;69440;52.118;5.408;2024-03-17T08:32:56;102197.69;;;9.06;100.00
80128;BME280;69440;52.118;5.408;2024-03-17T08:35:22;102197.59;;;9.09;100.00
80128;BME280;69440;52.118;5.408;2024-03-17T08:37:47;102190.41;;;9.09;100.00
80128;BME280;69440;52.118;5.408;2024-03-17T08:40:13;102194.84;;;9.10;100.00
80128;BME280;69440;52.118;5.408;2024-03-17T08:42:39;102184.13;;;9.10;100.00
80128;BME280;69440;52.118;5.408;2024-03-17T08:45:06;102192.94;;;9.14;100.00
80128;BME280;69440;52.118;5.408;2024-03-17T08:47:31;102191.84;;;9.21;100.00
80128;BME280;69440;52.118;5.408;2024-03-17T08:49:57;102188.06;;;9.28;100.00
80128;BME280;69440;52.118;5.408;2024-03-17T08:52:24;102182.53;;;9.32;100.00
80128;BME280;69440;52.118;5.408;2024-03-17T08:54:49;102190.31;;;9.40;100.00
80128;BME280;69440;52.118;5.408;2024-03-17T08:57:18;102184.63;;;9.51;100.00
80128;BME280;69440;52.118;5.408;2024-03-17T08:59:47;102183.66;;;9.53;100.00
80128;BME280;69440;52.118;5.408;2024-03-17T09:02:13;102187.00;;;9.60;100.00
80128;BME280;69440;52.118;5.408;2024-03-17T09:04:42;102178.84;;;9.63;100.00
80128;BME280;69440;52.118;5.408;2024-03-17T09:07:07;102175.78;;;9.74;100.00
80128;BME280;69440;52.118;5.408;2024-03-17T09:09:33;102173.75;;;9.82;100.00
80128;BME280;69440;52.118;5.408;2024-03-17T09:11:58;102170.72;;;9.91;99.88
80128;BME280;69440;52.118;5.408;2024-03-17T09:14:24;102172.16;;;10.01;99.04
80128;BME280;69440;52.118;5.408;2024-03-17T09:16:50;102174.47;;;10.12;99.99
80128;BME280;69440;52.118;5.408;2024-03-17T09:19:15;102177.06;;;10.15;98.65
80128;BME280;69440;52.118;5.408;2024-03-17T09:21:41;102173.31;;;10.19;97.82
80128;BME280;69440;52.118;5.408;2024-03-17T09:24:06;102176.56;;;10.29;98.63
80128;BME280;69440;52.118;5.408;2024-03-17T09:26:35;102179.16;;;10.32;97.49
80128;BME280;69440;52.118;5.408;2024-03-17T09:29:01;102177.41;;;10.31;95.87
80128;BME280;69440;52.118;5.408;2024-03-17T09:31:27;102174.78;;;10.29;95.54
80128;BME280;69440;52.118;5.408;2024-03-17T09:33:52;102173.84;;;10.30;96.16
80128;BME280;69440;52.118;5.408;2024-03-17T09:36:18;102179.81;;;10.38;97.56
80128;BME280;69440;52.118;5.408;2024-03-17T09:38:44;102179.53;;;10.46;96.43
80128;BME280;69440;52.118;5.408;2024-03-17T09:41:24;102168.72;;;10.47;96.29
80128;BME280;69440;52.118;5.408;2024-03-17T09:43:54;102168.31;;;10.58;95.30
80128;BME280;69440;52.118;5.408;2024-03-17T09:46:22;102164.22;;;10.71;96.23
80128;BME280;69440;52.118;5.408;2024-03-17T09:48:48;102171.78;;;10.85;95.43
80128;BME280;69440;52.118;5.408;2024-03-17T09:51:24;102158.91;;;10.93;96.22
80128;BME280;69440;52.118;5.408;2024-03-17T09:53:51;102173.09;;;10.97;93.69
80128;BME280;69440;52.118;5.408;2024-03-17T09:56:18;102171.81;;;11.07;93.96
80128;BME280;69440;52.118;5.408;2024-03-17T09:58:47;102166.63;;;11.24;94.40
80128;BME280;69440;52.118;5.408;2024-03-17T10:01:13;102156.50;;;11.31;91.69
80128;BME280;69440;52.118;5.408;2024-03-17T10:03:39;102154.19;;;11.43;92.76
80128;BME280;69440;52.118;5.408;2024-03-17T10:06:05;102147.41;;;11.55;89.84
80128;BME280;69440;52.118;5.408;2024-03-17T10:08:31;102153.16;;;11.68;91.57
80128;BME280;69440;52.118;5.408;2024-03-17T10:10:59;102148.59;;;11.70;90.75
80128;BME280;69440;52.118;5.408;2024-03-17T10:13:25;102143.19;;;11.70;91.02
80128;BME280;69440;52.118;5.408;2024-03-17T10:15:50;102147.03;;;11.64;90.63
80128;BME280;69440;52.118;5.408;2024-03-17T10:18:22;102145.97;;;11.68;91.27
80128;BME280;69440;52.118;5.408;2024-03-17T10:20:50;102138.56;;;11.73;91.05
80128;BME280;69440;52.118;5.408;2024-03-17T10:23:23;102142.63;;;11.84;91.02
80128;BME280;69440;52.118;5.408;2024-03-17T10:25:49;102141.19;;;11.97;90.95
80128;BME280;69440;52.118;5.408;2024-03-17T10:28:17;102144.47;;;12.03;89.36
80128;BME280;69440;52.118;5.408;2024-03-17T10:30:59;102137.66;;;12.15;87.81
80128;BME280;69440;52.118;5.408;2024-03-17T10:33:26;102135.97;;;12.33;87.33
80128;BME280;69440;52.118;5.408;2024-03-17T10:36:00;102126.84;;;12.54;87.50
80128;BME280;69440;52.118;5.408;2024-03-17T10:38:26;102117.69;;;12.77;86.99
80128;BME280;69440;52.118;5.408;2024-03-17T10:40:53;102123.31;;;12.91;86.45
80128;BME280;69440;52.118;5.408;2024-03-17T10:43:18;102126.38;;;13.02;85.98
80128;BME280;69440;52.118;5.408;2024-03-17T10:45:51;102114.25;;;13.11;82.95
80128;BME280;69440;52.118;5.408;2024-03-17T10:48:19;102115.84;;;13.34;85.08
80128;BME280;69440;52.118;5.408;2024-03-17T10:50:46;102108.91;;;13.47;84.23
80128;BME280;69440;52.118;5.408;2024-03-17T10:53:14;102109.47;;;13.54;81.46
80128;BME280;69440;52.118;5.408;2024-03-17T10:55:45;102103.56;;;13.63;80.65
80128;BME280;69440;52.118;5.408;2024-03-17T10:58:26;102103.72;;;13.77;78.70
80128;BME280;69440;52.118;5.408;2024-03-17T11:00:57;102101.81;;;13.96;78.94
80128;BME280;69440;52.118;5.408;2024-03-17T11:03:23;102095.03;;;14.05;79.89
80128;BME280;69440;52.118;5.408;2024-03-17T11:05:51;102101.00;;;14.12;79.43
80128;BME280;69440;52.118;5.408;2024-03-17T11:08:18;102099.38;;;14.25;77.40
80128;BME280;69440;52.118;5.408;2024-03-17T11:10:52;102094.84;;;14.43;79.04
80128;BME280;69440;52.118;5.408;2024-03-17T11:13:28;102088.75;;;14.38;78.46
80128;BME280;69440;52.118;5.408;2024-03-17T11:15:55;102090.16;;;14.29;79.45
80128;BME280;69440;52.118;5.408;2024-03-17T11:18:34;102095.34;;;14.16;77.98
80128;BME280;69440;52.118;5.408;2024-03-17T11:21:06;102087.00;;;14.04;77.41
80128;BME280;69440;52.118;5.408;2024-03-17T11:23:37;102094.38;;;13.84;78.01
80128;BME280;69440;52.118;5.408;2024-03-17T11:26:05;102088.06;;;13.66;78.89
80128;BME280;69440;52.118;5.408;2024-03-17T11:31:38;102085.75;;;13.42;81.85
80128;BME280;69440;52.118;5.408;2024-03-17T11:34:33;102089.25;;;13.26;80.72
80128;BME280;69440;52.118;5.408;2024-03-17T11:37:01;102081.63;;;13.16;82.79
80128;BME280;69440;52.118;5.408;2024-03-17T11:39:52;102081.69;;;13.14;83.56
80128;BME280;69440;52.118;5.408;2024-03-17T11:42:22;102073.75;;;13.11;82.86
80128;BME280;69440;52.118;5.408;2024-03-17T11:45:17;102079.69;;;13.00;84.12
80128;BME280;69440;52.118;5.408;2024-03-17T11:47:46;102085.69;;;12.88;83.82
80128;BME280;69440;52.118;5.408;2024-03-17T11:50:15;102084.44;;;12.77;85.72
80128;BME280;69440;52.118;5.408;2024-03-17T11:52:40;102088.41;;;12.69;84.68
80128;BME280;69440;52.118;5.408;2024-03-17T11:55:16;102087.16;;;12.58;84.75
80128;BME280;69440;52.118;5.408;2024-03-17T11:57:43;102090.94;;;12.54;86.23
80128;BME280;69440;52.118;5.408;2024-03-17T12:00:23;102091.81;;;12.54;86.74
80128;BME280;69440;52.118;5.408;2024-03-17T12:02:50;102084.06;;;12.47;85.93
80128;BME280;69440;52.118;5.408;2024-03-17T12:05:16;102088.53;;;12.48;86.85
80128;BME280;69440;52.118;5.408;2024-03-17T12:07:42;102084.00;;;12.48;87.70
80128;BME280;69440;52.118;5.408;2024-03-17T12:10:10;102075.84;;;12.50;88.20
80128;BME280;69440;52.118;5.408;2024-03-17T12:12:36;102078.47;;;12.51;87.51
80128;BME280;69440;52.118;5.408;2024-03-17T12:15:03;102078.41;;;12.53;88.43
80128;BME280;69440;52.118;5.408;2024-03-17T12:17:38;102079.16;;;12.56;87.13
80128;BME280;69440;52.118;5.408;2024-03-17T12:20:04;102069.81;;;12.63;87.63
80128;BME280;69440;52.118;5.408;2024-03-17T12:22:30;102056.66;;;12.74;88.56
80128;BME280;69440;52.118;5.408;2024-03-17T12:25:02;102060.88;;;12.80;86.43
80128;BME280;69440;52.118;5.408;2024-03-17T12:27:27;102061.84;;;12.79;86.74
80128;BME280;69440;52.118;5.408;2024-03-17T12:29:54;102058.41;;;12.75;86.56
80128;BME280;69440;52.118;5.408;2024-03-17T12:32:23;102058.19;;;12.80;87.70
80128;BME280;69440;52.118;5.408;2024-03-17T12:34:52;102053.59;;;12.82;85.95
80128;BME280;69440;52.118;5.408;2024-03-17T12:37:20;102053.44;;;12.85;86.19
80128;BME280;69440;52.118;5.408;2024-03-17T12:39:47;102048.72;;;12.90;85.18
80128;BME280;69440;52.118;5.408;2024-03-17T12:42:14;102045.72;;;12.96;85.63
80128;BME280;69440;52.118;5.408;2024-03-17T12:44:47;102039.06;;;13.03;85.87
80128;BME280;69440;52.118;5.408;2024-03-17T12:47:33;102024.44;;;13.07;84.76
80128;BME280;69440;52.118;5.408;2024-03-17T12:50:01;102036.44;;;13.02;83.45
80128;BME280;69440;52.118;5.408;2024-03-17T12:55:04;102025.94;;;12.96;84.12
80128;BME280;69440;52.118;5.408;2024-03-17T12:57:53;102019.75;;;12.94;84.46